sensor_id;sensor_type;location;lat;lon;timestamp;temperature;humidity
5419;DHT22;2732;52.092;11.556;2023-06-24T00:00:23;16.40;99.90
5419;DHT22;2732;52.092;11.556;2023-06-24T00:05:24;16.40;99.90
5419;DHT22;2732;52.092;11.556;2023-06-24T00:10:24;16.30;99.90
5419;DHT22;2732;52.092;11.556;2023-06-24T00:15:25;16.30;99.90
5419;DHT22;2732;52.092;11.556;2023-06-24T00:20:26;16.30;99.90
5419;DHT22;2732;52.092;11.556;2023-06-24T00:25:26;16.20;99.90
5419;DHT22;2732;52.092;11.556;2023-06-24T00:30:27;16.20;99.90
5419;DHT22;2732;52.092;11.556;2023-06-24T00:35:28;16.10;99.90
5419;DHT22;2732;52.092;11.556;2023-06-24T00:40:29;16.10;99.90
5419;DHT22;2732;52.092;11.556;2023-06-24T00:45:29;16.10;99.90
5419;DHT22;2732;52.092;11.556;2023-06-24T00:50:30;16.00;99.90
5419;DHT22;2732;52.092;11.556;2023-06-24T00:55:31;15.90;99.90
5419;DHT22;2732;52.092;11.556;2023-06-24T01:00:32;15.80;99.90
5419;DHT22;2732;52.092;11.556;2023-06-24T01:05:34;15.80;99.90
5419;DHT22;2732;52.092;11.556;2023-06-24T01:10:36;15.70;99.90
5419;DHT22;2732;52.092;11.556;2023-06-24T01:15:37;15.60;99.90
5419;DHT22;2732;52.092;11.556;2023-06-24T01:21:05;15.50;99.90
5419;DHT22;2732;52.092;11.556;2023-06-24T01:31:45;15.40;99.90
5419;DHT22;2732;52.092;11.556;2023-06-24T01:37:14;15.30;99.90
5419;DHT22;2732;52.092;11.556;2023-06-24T01:42:18;15.20;99.90
5419;DHT22;2732;52.092;11.556;2023-06-24T01:47:22;15.20;99.90
5419;DHT22;2732;52.092;11.556;2023-06-24T01:52:26;15.10;99.90
5419;DHT22;2732;52.092;11.556;2023-06-24T01:57:30;15.00;99.90
5419;DHT22;2732;52.092;11.556;2023-06-24T02:02:33;15.00;99.90
5419;DHT22;2732;52.092;11.556;2023-06-24T02:07:37;14.90;99.90
5419;DHT22;2732;52.092;11.556;2023-06-24T02:12:39;14.90;99.90
5419;DHT22;2732;52.092;11.556;2023-06-24T02:17:41;14.80;99.90
5419;DHT22;2732;52.092;11.556;2023-06-24T02:22:44;14.70;99.90
5419;DHT22;2732;52.092;11.556;2023-06-24T02:27:45;14.70;99.90
5419;DHT22;2732;52.092;11.556;2023-06-24T02:32:46;14.60;99.90
5419;DHT22;2732;52.092;11.556;2023-06-24T02:37:47;14.60;99.90
5419;DHT22;2732;52.092;11.556;2023-06-24T02:42:47;14.50;99.90
5419;DHT22;2732;52.092;11.556;2023-06-24T02:47:49;14.50;99.90
5419;DHT22;2732;52.092;11.556;2023-06-24T02:52:50;14.50;99.90
5419;DHT22;2732;52.092;11.556;2023-06-24T02:57:52;14.40;99.90
5419;DHT22;2732;52.092;11.556;2023-06-24T03:02:54;14.40;99.90
5419;DHT22;2732;52.092;11.556;2023-06-24T03:07:54;14.30;99.90
5419;DHT22;2732;52.092;11.556;2023-06-24T03:12:56;14.30;99.90
5419;DHT22;2732;52.092;11.556;2023-06-24T03:17:56;14.20;99.90
5419;DHT22;2732;52.092;11.556;2023-06-24T03:22:57;14.20;99.90
5419;DHT22;2732;52.092;11.556;2023-06-24T03:27:58;14.20;99.90
5419;DHT22;2732;52.092;11.556;2023-06-24T03:33:00;14.10;99.90
5419;DHT22;2732;52.092;11.556;2023-06-24T03:38:02;14.10;99.90
5419;DHT22;2732;52.092;11.556;2023-06-24T03:43:02;14.20;99.90
5419;DHT22;2732;52.092;11.556;2023-06-24T03:48:03;14.20;99.90
5419;DHT22;2732;52.092;11.556;2023-06-24T03:53:04;14.20;99.90
5419;DHT22;2732;52.092;11.556;2023-06-24T03:58:05;14.20;99.90
5419;DHT22;2732;52.092;11.556;2023-06-24T04:03:06;14.20;99.90
5419;DHT22;2732;52.092;11.556;2023-06-24T04:08:07;14.20;99.90
5419;DHT22;2732;52.092;11.556;2023-06-24T04:13:08;14.20;99.90
5419;DHT22;2732;52.092;11.556;2023-06-24T04:18:09;14.30;99.90
5419;DHT22;2732;52.092;11.556;2023-06-24T04:23:09;14.40;99.90
5419;DHT22;2732;52.092;11.556;2023-06-24T04:28:11;14.50;99.90
5419;DHT22;2732;52.092;11.556;2023-06-24T04:33:11;14.70;99.90
5419;DHT22;2732;52.092;11.556;2023-06-24T04:38:12;14.80;99.90
5419;DHT22;2732;52.092;11.556;2023-06-24T04:43:18;14.90;99.90
5419;DHT22;2732;52.092;11.556;2023-06-24T04:48:19;15.00;99.90
5419;DHT22;2732;52.092;11.556;2023-06-24T04:53:21;15.00;99.90
5419;DHT22;2732;52.092;11.556;2023-06-24T04:58:21;15.00;99.90
5419;DHT22;2732;52.092;11.556;2023-06-24T05:03:22;15.00;99.90
5419;DHT22;2732;52.092;11.556;2023-06-24T05:08:22;15.00;99.90
5419;DHT22;2732;52.092;11.556;2023-06-24T05:13:23;15.00;99.90
5419;DHT22;2732;52.092;11.556;2023-06-24T05:18:24;15.10;99.90
5419;DHT22;2732;52.092;11.556;2023-06-24T05:23:24;15.10;99.90
5419;DHT22;2732;52.092;11.556;2023-06-24T05:28:26;15.10;99.90
5419;DHT22;2732;52.092;11.556;2023-06-24T05:33:27;15.20;99.90
5419;DHT22;2732;52.092;11.556;2023-06-24T05:38:27;15.20;99.90
5419;DHT22;2732;52.092;11.556;2023-06-24T05:43:28;15.30;99.90
5419;DHT22;2732;52.092;11.556;2023-06-24T05:48:30;15.40;99.90
5419;DHT22;2732;52.092;11.556;2023-06-24T05:53:30;15.60;99.90
5419;DHT22;2732;52.092;11.556;2023-06-24T05:58:31;15.80;99.90
5419;DHT22;2732;52.092;11.556;2023-06-24T06:03:31;16.00;99.90
5419;DHT22;2732;52.092;11.556;2023-06-24T06:08:32;16.10;99.90
5419;DHT22;2732;52.092;11.556;2023-06-24T06:13:34;16.30;99.90
5419;DHT22;2732;52.092;11.556;2023-06-24T06:18:34;16.30;99.90
5419;DHT22;2732;52.092;11.556;2023-06-24T06:23:35;16.40;99.90
5419;DHT22;2732;52.092;11.556;2023-06-24T06:28:35;16.70;99.90
5419;DHT22;2732;52.092;11.556;2023-06-24T06:33:36;16.90;99.90
5419;DHT22;2732;52.092;11.556;2023-06-24T06:38:36;17.20;99.90
5419;DHT22;2732;52.092;11.556;2023-06-24T06:43:37;17.30;99.90
5419;DHT22;2732;52.092;11.556;2023-06-24T06:48:38;17.30;99.90
5419;DHT22;2732;52.092;11.556;2023-06-24T06:53:39;17.50;99.90
5419;DHT22;2732;52.092;11.556;2023-06-24T06:58:39;17.70;99.90
5419;DHT22;2732;52.092;11.556;2023-06-24T07:03:40;17.90;99.90
5419;DHT22;2732;52.092;11.556;2023-06-24T07:08:41;18.00;99.90
5419;DHT22;2732;52.092;11.556;2023-06-24T07:13:41;18.10;99.90
5419;DHT22;2732;52.092;11.556;2023-06-24T07:18:42;18.30;99.90
5419;DHT22;2732;52.092;11.556;2023-06-24T07:23:42;18.80;99.90
5419;DHT22;2732;52.092;11.556;2023-06-24T07:28:43;19.20;99.90
5419;DHT22;2732;52.092;11.556;2023-06-24T07:33:44;19.70;99.90
5419;DHT22;2732;52.092;11.556;2023-06-24T07:38:44;20.10;99.90
5419;DHT22;2732;52.092;11.556;2023-06-24T07:43:45;20.50;99.90
5419;DHT22;2732;52.092;11.556;2023-06-24T07:48:45;20.40;99.90
5419;DHT22;2732;52.092;11.556;2023-06-24T07:53:46;20.30;99.90
5419;DHT22;2732;52.092;11.556;2023-06-24T07:58:47;20.80;99.90
5419;DHT22;2732;52.092;11.556;2023-06-24T08:03:47;21.10;99.90
5419;DHT22;2732;52.092;11.556;2023-06-24T08:08:48;21.50;99.90
5419;DHT22;2732;52.092;11.556;2023-06-24T08:13:48;21.90;99.90
5419;DHT22;2732;52.092;11.556;2023-06-24T08:18:49;22.20;99.90
5419;DHT22;2732;52.092;11.556;2023-06-24T08:23:50;22.60;99.90
5419;DHT22;2732;52.092;11.556;2023-06-24T08:28:51;22.90;99.90
5419;DHT22;2732;52.092;11.556;2023-06-24T08:33:53;23.30;99.90
5419;DHT22;2732;52.092;11.556;2023-06-24T08:38:54;23.40;99.90
5419;DHT22;2732;52.092;11.556;2023-06-24T08:43:55;23.30;99.90
5419;DHT22;2732;52.092;11.556;2023-06-24T08:54:23;23.90;99.90
5419;DHT22;2732;52.092;11.556;2023-06-24T08:59:24;24.20;99.90
5419;DHT22;2732;52.092;11.556;2023-06-24T09:04:25;24.30;99.90
5419;DHT22;2732;52.092;11.556;2023-06-24T09:09:26;24.10;99.90
5419;DHT22;2732;52.092;11.556;2023-06-24T09:14:29;24.50;99.90
5419;DHT22;2732;52.092;11.556;2023-06-24T09:19:31;25.00;99.90
5419;DHT22;2732;52.092;11.556;2023-06-24T09:24:34;25.40;99.90
5419;DHT22;2732;52.092;11.556;2023-06-24T09:29:36;25.70;99.90
5419;DHT22;2732;52.092;11.556;2023-06-24T09:34:37;26.00;99.90
5419;DHT22;2732;52.092;11.556;2023-06-24T09:39:39;26.20;99.90
5419;DHT22;2732;52.092;11.556;2023-06-24T09:44:40;26.40;99.90
5419;DHT22;2732;52.092;11.556;2023-06-24T09:49:42;26.80;99.90
5419;DHT22;2732;52.092;11.556;2023-06-24T09:54:44;27.10;99.90
5419;DHT22;2732;52.092;11.556;2023-06-24T09:59:48;27.40;99.90
5419;DHT22;2732;52.092;11.556;2023-06-24T10:04:50;27.50;99.90
5419;DHT22;2732;52.092;11.556;2023-06-24T10:09:52;27.80;99.90
5419;DHT22;2732;52.092;11.556;2023-06-24T10:14:53;28.10;99.90
5419;DHT22;2732;52.092;11.556;2023-06-24T10:19:54;28.40;99.60
5419;DHT22;2732;52.092;11.556;2023-06-24T10:24:54;28.50;99.90
5419;DHT22;2732;52.092;11.556;2023-06-24T10:30:03;28.70;99.90
5419;DHT22;2732;52.092;11.556;2023-06-24T10:35:05;29.00;98.80
5419;DHT22;2732;52.092;11.556;2023-06-24T10:40:06;29.30;97.70
5419;DHT22;2732;52.092;11.556;2023-06-24T10:50:15;29.70;96.50
5419;DHT22;2732;52.092;11.556;2023-06-24T10:55:18;29.80;96.40
5419;DHT22;2732;52.092;11.556;2023-06-24T11:00:20;30.10;96.30
5419;DHT22;2732;52.092;11.556;2023-06-24T11:05:21;30.20;95.10
5419;DHT22;2732;52.092;11.556;2023-06-24T11:10:22;30.40;94.70
5419;DHT22;2732;52.092;11.556;2023-06-24T11:15:22;30.60;93.60
5419;DHT22;2732;52.092;11.556;2023-06-24T11:20:23;30.70;93.10
5419;DHT22;2732;52.092;11.556;2023-06-24T11:25:24;30.90;93.10
5419;DHT22;2732;52.092;11.556;2023-06-24T11:30:24;31.00;92.70
5419;DHT22;2732;52.092;11.556;2023-06-24T11:35:25;31.20;92.00
5419;DHT22;2732;52.092;11.556;2023-06-24T11:40:26;31.30;91.80
5419;DHT22;2732;52.092;11.556;2023-06-24T11:45:27;31.60;90.80
5419;DHT22;2732;52.092;11.556;2023-06-24T11:50:27;31.70;91.30
5419;DHT22;2732;52.092;11.556;2023-06-24T11:55:28;31.80;91.30
5419;DHT22;2732;52.092;11.556;2023-06-24T12:00:34;32.10;90.30
5419;DHT22;2732;52.092;11.556;2023-06-24T12:05:36;32.20;90.00
5419;DHT22;2732;52.092;11.556;2023-06-24T12:10:38;32.40;90.20
5419;DHT22;2732;52.092;11.556;2023-06-24T12:15:39;32.60;90.00
5419;DHT22;2732;52.092;11.556;2023-06-24T12:20:39;32.60;89.50
5419;DHT22;2732;52.092;11.556;2023-06-24T12:25:41;32.70;87.60
5419;DHT22;2732;52.092;11.556;2023-06-24T12:30:42;32.80;88.20
5419;DHT22;2732;52.092;11.556;2023-06-24T12:35:42;32.90;86.40
5419;DHT22;2732;52.092;11.556;2023-06-24T12:40:43;33.10;85.60
5419;DHT22;2732;52.092;11.556;2023-06-24T12:45:45;33.20;86.10
5419;DHT22;2732;52.092;11.556;2023-06-24T12:50:46;33.30;83.10
5419;DHT22;2732;52.092;11.556;2023-06-24T12:55:47;33.40;82.80
5419;DHT22;2732;52.092;11.556;2023-06-24T13:00:48;33.40;83.10
5419;DHT22;2732;52.092;11.556;2023-06-24T13:05:49;33.50;82.00
5419;DHT22;2732;52.092;11.556;2023-06-24T13:10:50;33.60;81.90
5419;DHT22;2732;52.092;11.556;2023-06-24T13:15:50;33.60;80.90
5419;DHT22;2732;52.092;11.556;2023-06-24T13:20:51;33.70;80.90
5419;DHT22;2732;52.092;11.556;2023-06-24T13:25:52;33.70;81.50
5419;DHT22;2732;52.092;11.556;2023-06-24T13:30:52;33.80;80.40
5419;DHT22;2732;52.092;11.556;2023-06-24T13:35:55;33.80;79.30
5419;DHT22;2732;52.092;11.556;2023-06-24T13:40:56;33.80;79.60
5419;DHT22;2732;52.092;11.556;2023-06-24T13:45:57;33.90;79.20
5419;DHT22;2732;52.092;11.556;2023-06-24T13:50:57;33.80;78.80
5419;DHT22;2732;52.092;11.556;2023-06-24T13:55:58;33.80;79.40
5419;DHT22;2732;52.092;11.556;2023-06-24T14:00:59;33.80;79.50
5419;DHT22;2732;52.092;11.556;2023-06-24T14:06:00;33.80;78.50
5419;DHT22;2732;52.092;11.556;2023-06-24T14:11:02;33.80;78.70
5419;DHT22;2732;52.092;11.556;2023-06-24T14:16:03;33.50;80.00
5419;DHT22;2732;52.092;11.556;2023-06-24T14:21:06;33.10;81.10
5419;DHT22;2732;52.092;11.556;2023-06-24T14:26:07;33.30;81.70
5419;DHT22;2732;52.092;11.556;2023-06-24T14:31:08;33.60;83.00
5419;DHT22;2732;52.092;11.556;2023-06-24T14:36:08;33.70;82.00
5419;DHT22;2732;52.092;11.556;2023-06-24T14:41:09;33.40;83.10
5419;DHT22;2732;52.092;11.556;2023-06-24T14:46:09;33.60;84.80
5419;DHT22;2732;52.092;11.556;2023-06-24T14:51:10;33.10;85.40
5419;DHT22;2732;52.092;11.556;2023-06-24T14:56:11;32.50;84.70
5419;DHT22;2732;52.092;11.556;2023-06-24T15:01:11;32.40;85.30
5419;DHT22;2732;52.092;11.556;2023-06-24T15:06:12;32.60;83.50
5419;DHT22;2732;52.092;11.556;2023-06-24T15:11:13;33.00;81.90
5419;DHT22;2732;52.092;11.556;2023-06-24T15:16:13;33.30;81.00
5419;DHT22;2732;52.092;11.556;2023-06-24T15:21:14;33.40;81.00
5419;DHT22;2732;52.092;11.556;2023-06-24T15:26:14;33.60;81.70
5419;DHT22;2732;52.092;11.556;2023-06-24T15:31:15;33.70;82.90
5419;DHT22;2732;52.092;11.556;2023-06-24T15:36:16;33.70;81.80
5419;DHT22;2732;52.092;11.556;2023-06-24T15:41:16;33.80;81.60
5419;DHT22;2732;52.092;11.556;2023-06-24T15:46:17;33.80;80.50
5419;DHT22;2732;52.092;11.556;2023-06-24T15:51:17;33.80;80.90
5419;DHT22;2732;52.092;11.556;2023-06-24T15:56:19;33.80;80.40
5419;DHT22;2732;52.092;11.556;2023-06-24T16:01:20;33.70;79.50
5419;DHT22;2732;52.092;11.556;2023-06-24T16:06:21;33.70;80.00
5419;DHT22;2732;52.092;11.556;2023-06-24T16:11:22;33.40;80.60
5419;DHT22;2732;52.092;11.556;2023-06-24T16:16:23;33.20;80.70
5419;DHT22;2732;52.092;11.556;2023-06-24T16:21:23;33.20;80.30
5419;DHT22;2732;52.092;11.556;2023-06-24T16:26:24;33.30;79.30
5419;DHT22;2732;52.092;11.556;2023-06-24T16:31:24;33.20;78.70
5419;DHT22;2732;52.092;11.556;2023-06-24T16:36:25;33.20;79.60
5419;DHT22;2732;52.092;11.556;2023-06-24T16:41:25;33.30;80.00
5419;DHT22;2732;52.092;11.556;2023-06-24T16:46:26;33.20;80.00
5419;DHT22;2732;52.092;11.556;2023-06-24T16:51:27;33.10;80.10
5419;DHT22;2732;52.092;11.556;2023-06-24T16:56:28;32.60;79.00
5419;DHT22;2732;52.092;11.556;2023-06-24T17:01:29;32.10;80.40
5419;DHT22;2732;52.092;11.556;2023-06-24T17:06:32;31.80;81.40
5419;DHT22;2732;52.092;11.556;2023-06-24T17:11:32;31.70;82.30
5419;DHT22;2732;52.092;11.556;2023-06-24T17:16:33;31.50;83.20
5419;DHT22;2732;52.092;11.556;2023-06-24T17:21:34;31.40;83.50
5419;DHT22;2732;52.092;11.556;2023-06-24T17:26:37;31.40;83.70
5419;DHT22;2732;52.092;11.556;2023-06-24T17:31:37;31.40;83.10
5419;DHT22;2732;52.092;11.556;2023-06-24T17:36:38;31.30;83.50
5419;DHT22;2732;52.092;11.556;2023-06-24T17:41:38;31.30;83.60
5419;DHT22;2732;52.092;11.556;2023-06-24T17:46:39;31.20;83.30
5419;DHT22;2732;52.092;11.556;2023-06-24T17:51:39;31.20;83.40
5419;DHT22;2732;52.092;11.556;2023-06-24T17:56:40;31.00;83.80
5419;DHT22;2732;52.092;11.556;2023-06-24T18:01:41;30.80;82.20
5419;DHT22;2732;52.092;11.556;2023-06-24T18:06:41;30.60;83.80
5419;DHT22;2732;52.092;11.556;2023-06-24T18:11:42;30.20;84.90
5419;DHT22;2732;52.092;11.556;2023-06-24T18:16:50;29.80;85.30
5419;DHT22;2732;52.092;11.556;2023-06-24T18:21:52;29.30;86.70
5419;DHT22;2732;52.092;11.556;2023-06-24T18:26:52;29.00;88.40
5419;DHT22;2732;52.092;11.556;2023-06-24T18:31:53;28.60;90.00
5419;DHT22;2732;52.092;11.556;2023-06-24T18:36:53;28.20;90.70
5419;DHT22;2732;52.092;11.556;2023-06-24T18:41:54;27.80;91.20
5419;DHT22;2732;52.092;11.556;2023-06-24T18:46:55;27.40;91.50
5419;DHT22;2732;52.092;11.556;2023-06-24T18:51:55;27.10;92.10
5419;DHT22;2732;52.092;11.556;2023-06-24T18:56:56;26.80;92.50
5419;DHT22;2732;52.092;11.556;2023-06-24T19:01:57;26.40;92.80
5419;DHT22;2732;52.092;11.556;2023-06-24T19:06:57;26.20;93.30
5419;DHT22;2732;52.092;11.556;2023-06-24T19:11:58;25.90;93.70
5419;DHT22;2732;52.092;11.556;2023-06-24T19:16:59;25.50;94.30
5419;DHT22;2732;52.092;11.556;2023-06-24T19:21:59;25.30;94.80
5419;DHT22;2732;52.092;11.556;2023-06-24T19:27:03;25.00;95.40
5419;DHT22;2732;52.092;11.556;2023-06-24T19:32:05;24.70;95.70
5419;DHT22;2732;52.092;11.556;2023-06-24T19:37:06;24.50;95.90
5419;DHT22;2732;52.092;11.556;2023-06-24T19:42:06;24.20;96.30
5419;DHT22;2732;52.092;11.556;2023-06-24T19:47:07;24.00;96.60
5419;DHT22;2732;52.092;11.556;2023-06-24T19:52:07;23.70;97.40
5419;DHT22;2732;52.092;11.556;2023-06-24T19:57:08;23.50;98.00
5419;DHT22;2732;52.092;11.556;2023-06-24T20:02:09;23.20;98.70
5419;DHT22;2732;52.092;11.556;2023-06-24T20:07:09;23.00;99.50
5419;DHT22;2732;52.092;11.556;2023-06-24T20:12:10;22.80;99.90
5419;DHT22;2732;52.092;11.556;2023-06-24T20:17:11;22.60;99.90
5419;DHT22;2732;52.092;11.556;2023-06-24T20:22:13;22.40;99.90
5419;DHT22;2732;52.092;11.556;2023-06-24T20:27:13;22.20;99.90
5419;DHT22;2732;52.092;11.556;2023-06-24T20:32:14;22.00;99.90
5419;DHT22;2732;52.092;11.556;2023-06-24T20:37:15;21.90;99.90
5419;DHT22;2732;52.092;11.556;2023-06-24T20:42:15;21.70;99.90
5419;DHT22;2732;52.092;11.556;2023-06-24T20:47:16;21.60;99.90
5419;DHT22;2732;52.092;11.556;2023-06-24T20:52:17;21.40;99.90
5419;DHT22;2732;52.092;11.556;2023-06-24T20:57:17;21.20;99.90
5419;DHT22;2732;52.092;11.556;2023-06-24T21:02:18;21.10;99.90
5419;DHT22;2732;52.092;11.556;2023-06-24T21:07:18;20.90;99.90
5419;DHT22;2732;52.092;11.556;2023-06-24T21:12:19;20.80;99.90
5419;DHT22;2732;52.092;11.556;2023-06-24T21:17:19;20.70;99.90
5419;DHT22;2732;52.092;11.556;2023-06-24T21:22:20;20.60;99.90
5419;DHT22;2732;52.092;11.556;2023-06-24T21:27:21;20.40;99.90
5419;DHT22;2732;52.092;11.556;2023-06-24T21:32:22;20.30;99.90
5419;DHT22;2732;52.092;11.556;2023-06-24T21:37:22;20.20;99.90
5419;DHT22;2732;52.092;11.556;2023-06-24T21:42:23;20.10;99.90
5419;DHT22;2732;52.092;11.556;2023-06-24T21:47:24;19.90;99.90
5419;DHT22;2732;52.092;11.556;2023-06-24T21:52:25;19.80;99.90
5419;DHT22;2732;52.092;11.556;2023-06-24T21:57:27;19.70;99.90
5419;DHT22;2732;52.092;11.556;2023-06-24T22:02:28;19.60;99.90
5419;DHT22;2732;52.092;11.556;2023-06-24T22:07:28;19.50;99.90
5419;DHT22;2732;52.092;11.556;2023-06-24T22:12:29;19.40;99.90
5419;DHT22;2732;52.092;11.556;2023-06-24T22:17:30;19.30;99.90
5419;DHT22;2732;52.092;11.556;2023-06-24T22:22:30;19.20;99.90
5419;DHT22;2732;52.092;11.556;2023-06-24T22:27:31;19.20;99.90
5419;DHT22;2732;52.092;11.556;2023-06-24T22:32:31;19.10;99.90
5419;DHT22;2732;52.092;11.556;2023-06-24T22:37:32;19.00;99.90
5419;DHT22;2732;52.092;11.556;2023-06-24T22:42:33;18.90;99.90
5419;DHT22;2732;52.092;11.556;2023-06-24T22:47:33;18.90;99.90
5419;DHT22;2732;52.092;11.556;2023-06-24T22:52:35;18.80;99.90
5419;DHT22;2732;52.092;11.556;2023-06-24T22:57:36;18.70;99.90
5419;DHT22;2732;52.092;11.556;2023-06-24T23:02:37;18.60;99.90
5419;DHT22;2732;52.092;11.556;2023-06-24T23:07:38;18.50;99.90
5419;DHT22;2732;52.092;11.556;2023-06-24T23:12:39;18.50;99.90
5419;DHT22;2732;52.092;11.556;2023-06-24T23:17:40;18.40;99.90
5419;DHT22;2732;52.092;11.556;2023-06-24T23:22:42;18.30;99.90
5419;DHT22;2732;52.092;11.556;2023-06-24T23:27:43;18.30;99.90
5419;DHT22;2732;52.092;11.556;2023-06-24T23:32:44;18.20;99.90
5419;DHT22;2732;52.092;11.556;2023-06-24T23:37:45;18.10;99.90
5419;DHT22;2732;52.092;11.556;2023-06-24T23:42:46;18.10;99.90
5419;DHT22;2732;52.092;11.556;2023-06-24T23:47:47;18.00;99.90
5419;DHT22;2732;52.092;11.556;2023-06-24T23:59:03;18.00;99.90
